Time;durP1;ratioP1;P1;durP2;ratioP2;P2;SDS_P1;SDS_P2;PMS_P1;PMS_P2;Temp;Humidity;BMP_temperature;BMP_pressure;BME280_temperature;BME280_humidity;BME280_pressure;Samples;Min_cycle;Max_cycle;Signal;HPM_P1;HPM_P2
2021/11/14 00:00:50;;;;;;;126.20;66.37;;;;;;;;;;5084623;28;20481;-84
2021/11/14 00:03:17;;;;;;;127.03;65.60;;;;;;;;;;5081835;28;20492;-84
2021/11/14 00:05:45;;;;;;;122.15;64.78;;;;;;;;;;5084601;28;20439;-84
2021/11/14 00:08:14;;;;;;;116.35;63.45;;;;;;;;;;5080849;28;20413;-84
2021/11/14 00:10:43;;;;;;;124.07;64.50;;;;;;;;;;5084827;28;20454;-84
2021/11/14 00:13:11;;;;;;;118.73;64.40;;;;;;;;;;5079882;28;20446;-84
2021/11/14 00:15:40;;;;;;;119.82;63.38;;;;;;;;;;5077762;28;20413;-85
2021/11/14 00:18:08;;;;;;;120.75;65.38;;;;;;;;;;5077279;28;20400;-84
2021/11/14 00:20:35;;;;;;;120.78;64.45;;;;;;;;;;5084424;28;20439;-84
2021/11/14 00:23:02;;;;;;;121.25;65.35;;;;;;;;;;5085376;28;20411;-84
2021/11/14 00:25:29;;;;;;;116.30;63.60;;;;;;;;;;5083926;28;20823;-83
2021/11/14 00:27:56;;;;;;;110.60;61.60;;;;;;;;;;5083629;28;20818;-83
2021/11/14 00:30:23;;;;;;;106.38;60.65;;;;;;;;;;5083422;28;20884;-83
2021/11/14 00:32:52;;;;;;;106.72;60.83;;;;;;;;;;5080297;28;20540;-83
2021/11/14 00:35:20;;;;;;;109.90;60.58;;;;;;;;;;5084375;28;20892;-82
2021/11/14 00:37:47;;;;;;;108.68;59.50;;;;;;;;;;5084106;28;20864;-83
2021/11/14 00:40:22;;;;;;;107.90;60.13;;;;;;;;;;5084144;28;20912;-83
2021/11/14 00:42:50;;;;;;;108.07;60.17;;;;;;;;;;5083148;28;20400;-83
2021/11/14 00:45:17;;;;;;;103.13;59.92;;;;;;;;;;5083026;28;20463;-83
2021/11/14 00:47:45;;;;;;;109.10;59.73;;;;;;;;;;5080716;28;20519;-83
2021/11/14 00:50:13;;;;;;;97.35;54.28;;;;;;;;;;5084396;28;20396;-83
2021/11/14 00:52:42;;;;;;;97.05;55.30;;;;;;;;;;5084019;28;20393;-83
2021/11/14 00:55:10;;;;;;;96.80;55.00;;;;;;;;;;5084188;28;20788;-83
2021/11/14 00:57:37;;;;;;;93.97;53.53;;;;;;;;;;5081666;28;20600;-82
2021/11/14 01:00:09;;;;;;;95.65;54.17;;;;;;;;;;5081180;28;20527;-82
2021/11/14 01:02:36;;;;;;;90.07;52.03;;;;;;;;;;5077061;28;20407;-83
2021/11/14 01:05:05;;;;;;;92.80;52.90;;;;;;;;;;5078143;28;20412;-83
2021/11/14 01:07:33;;;;;;;94.68;52.80;;;;;;;;;;5084900;28;20403;-84
2021/11/14 01:10:00;;;;;;;87.63;51.55;;;;;;;;;;5086642;28;20404;-84
2021/11/14 01:12:26;;;;;;;85.10;49.10;;;;;;;;;;5085859;28;20508;-82
2021/11/14 01:14:53;;;;;;;84.47;48.78;;;;;;;;;;5086220;28;20958;-84
2021/11/14 01:17:20;;;;;;;85.95;49.35;;;;;;;;;;5087521;28;20399;-84
2021/11/14 01:19:47;;;;;;;81.97;47.50;;;;;;;;;;5087347;28;20537;-84
2021/11/14 01:22:15;;;;;;;81.35;48.08;;;;;;;;;;5088308;28;20769;-84
2021/11/14 01:24:44;;;;;;;82.80;45.97;;;;;;;;;;5087661;28;20473;-84
2021/11/14 01:27:11;;;;;;;83.07;47.83;;;;;;;;;;5088078;28;20400;-84
2021/11/14 01:29:38;;;;;;;78.40;46.88;;;;;;;;;;5086025;28;20402;-84
2021/11/14 01:32:06;;;;;;;76.70;45.92;;;;;;;;;;5087415;28;20887;-84
2021/11/14 01:34:32;;;;;;;79.90;46.63;;;;;;;;;;5086274;28;20900;-84
2021/11/14 01:36:59;;;;;;;82.80;47.30;;;;;;;;;;5086194;28;20404;-84
2021/11/14 01:39:26;;;;;;;85.90;47.83;;;;;;;;;;5087906;28;20407;-84
2021/11/14 01:41:54;;;;;;;80.15;46.15;;;;;;;;;;5087507;28;20396;-84
2021/11/14 01:44:21;;;;;;;85.17;47.03;;;;;;;;;;5085105;28;20898;-84
2021/11/14 01:46:48;;;;;;;84.25;47.13;;;;;;;;;;5098881;28;20403;-83
2021/11/14 01:49:15;;;;;;;85.15;46.97;;;;;;;;;;5094806;28;20400;-84
2021/11/14 01:51:42;;;;;;;82.88;45.90;;;;;;;;;;5087228;28;20413;-84
2021/11/14 01:54:08;;;;;;;80.32;45.63;;;;;;;;;;5087452;28;20412;-84
2021/11/14 01:56:35;;;;;;;79.38;45.42;;;;;;;;;;5087329;28;20400;-84
2021/11/14 01:59:04;;;;;;;79.13;44.72;;;;;;;;;;5087373;28;20400;-83
2021/11/14 02:01:33;;;;;;;84.32;47.15;;;;;;;;;;5086849;28;20461;-83
2021/11/14 02:04:05;;;;;;;83.65;47.15;;;;;;;;;;5083690;28;20528;-83
2021/11/14 02:06:34;;;;;;;85.43;45.63;;;;;;;;;;5087137;28;20507;-84
2021/11/14 02:09:02;;;;;;;79.93;44.35;;;;;;;;;;5085228;28;20415;-84
2021/11/14 02:11:29;;;;;;;78.88;43.92;;;;;;;;;;5085682;28;20957;-84
2021/11/14 02:13:55;;;;;;;76.95;43.80;;;;;;;;;;5087114;28;20400;-83
2021/11/14 02:16:26;;;;;;;80.10;44.67;;;;;;;;;;5086878;28;20856;-83
2021/11/14 02:18:54;;;;;;;78.93;44.03;;;;;;;;;;5085051;28;20411;-84
2021/11/14 02:21:23;;;;;;;78.63;44.20;;;;;;;;;;5084853;28;20408;-84
2021/11/14 02:23:51;;;;;;;74.20;42.57;;;;;;;;;;5086266;28;20403;-84
2021/11/14 02:26:18;;;;;;;75.68;43.45;;;;;;;;;;5086477;28;20423;-84
2021/11/14 02:28:45;;;;;;;72.38;42.45;;;;;;;;;;5084906;28;20403;-84
2021/11/14 02:31:12;;;;;;;71.88;41.83;;;;;;;;;;5083156;28;20401;-84
2021/11/14 02:33:39;;;;;;;72.00;42.17;;;;;;;;;;5085988;28;20741;-84
2021/11/14 02:36:09;;;;;;;70.63;40.53;;;;;;;;;;5086614;28;20652;-84
2021/11/14 02:38:38;;;;;;;71.50;41.25;;;;;;;;;;5086319;28;20403;-84
2021/11/14 02:41:05;;;;;;;71.97;41.58;;;;;;;;;;5086621;28;20397;-83
2021/11/14 02:43:33;;;;;;;66.38;38.92;;;;;;;;;;5086564;28;20896;-83
2021/11/14 02:46:00;;;;;;;67.25;37.53;;;;;;;;;;5082371;28;20420;-84
2021/11/14 02:48:27;;;;;;;61.92;36.00;;;;;;;;;;5085228;28;20880;-84
2021/11/14 02:50:57;;;;;;;58.63;34.72;;;;;;;;;;5086015;28;20396;-83
2021/11/14 02:53:24;;;;;;;57.63;34.20;;;;;;;;;;5080340;28;20759;-83
2021/11/14 02:55:52;;;;;;;58.08;32.72;;;;;;;;;;5083699;28;20404;-83
2021/11/14 02:58:21;;;;;;;59.08;33.22;;;;;;;;;;5083414;28;20730;-84
2021/11/14 03:00:51;;;;;;;57.93;33.07;;;;;;;;;;5086182;28;20487;-83
2021/11/14 03:03:18;;;;;;;55.45;32.75;;;;;;;;;;5085268;28;20413;-83
2021/11/14 03:05:46;;;;;;;52.85;30.52;;;;;;;;;;5087196;28;20412;-84
2021/11/14 03:08:13;;;;;;;53.78;31.13;;;;;;;;;;5087470;28;20408;-83
2021/11/14 03:10:40;;;;;;;53.17;31.90;;;;;;;;;;5087040;28;20409;-83
2021/11/14 03:13:11;;;;;;;53.63;30.88;;;;;;;;;;5073970;28;20400;-84
2021/11/14 03:15:40;;;;;;;49.85;30.40;;;;;;;;;;5087487;28;20405;-84
2021/11/14 03:18:07;;;;;;;49.83;30.48;;;;;;;;;;5080961;28;20769;-84
2021/11/14 03:20:36;;;;;;;50.47;30.65;;;;;;;;;;5079167;28;20388;-83
2021/11/14 03:23:03;;;;;;;51.33;31.13;;;;;;;;;;5087251;28;20396;-84
2021/11/14 03:25:31;;;;;;;50.85;30.85;;;;;;;;;;5087492;28;20427;-83
2021/11/14 03:27:58;;;;;;;54.05;31.27;;;;;;;;;;5087234;28;20483;-83
2021/11/14 03:30:28;;;;;;;48.47;30.77;;;;;;;;;;5086989;28;20400;-83
2021/11/14 03:32:56;;;;;;;52.33;30.85;;;;;;;;;;5083212;28;20746;-83
2021/11/14 03:35:24;;;;;;;52.53;30.42;;;;;;;;;;5086633;28;20416;-84
2021/11/14 03:37:51;;;;;;;47.85;29.17;;;;;;;;;;5087051;28;20400;-83
2021/11/14 03:40:20;;;;;;;50.42;30.63;;;;;;;;;;5086887;28;20914;-83
2021/11/14 03:42:48;;;;;;;47.60;29.17;;;;;;;;;;5086737;28;20397;-83
2021/11/14 03:45:16;;;;;;;49.27;28.87;;;;;;;;;;5086607;28;20462;-82
2021/11/14 03:47:44;;;;;;;46.78;28.38;;;;;;;;;;5084350;28;20898;-83
2021/11/14 03:50:11;;;;;;;49.60;28.92;;;;;;;;;;5086497;28;20757;-83
2021/11/14 03:52:39;;;;;;;48.20;28.55;;;;;;;;;;5086682;28;20400;-83
2021/11/14 03:55:07;;;;;;;46.97;27.95;;;;;;;;;;5086527;28;20396;-83
2021/11/14 03:57:34;;;;;;;44.30;27.05;;;;;;;;;;5086611;28;20881;-83
2021/11/14 04:00:01;;;;;;;43.05;27.23;;;;;;;;;;5086234;28;20429;-83
2021/11/14 04:02:29;;;;;;;47.97;28.15;;;;;;;;;;5083173;28;20401;-83
2021/11/14 04:04:58;;;;;;;41.97;26.63;;;;;;;;;;5078928;28;20776;-83
2021/11/14 04:07:25;;;;;;;45.38;27.15;;;;;;;;;;5086473;28;20795;-83
2021/11/14 04:09:52;;;;;;;42.58;25.45;;;;;;;;;;5086460;28;20400;-83
2021/11/14 04:12:19;;;;;;;43.13;25.85;;;;;;;;;;5086026;28;20396;-83
2021/11/14 04:14:45;;;;;;;39.90;24.08;;;;;;;;;;5086348;28;20407;-83
2021/11/14 04:17:12;;;;;;;37.47;23.87;;;;;;;;;;5086456;28;20467;-83
2021/11/14 04:19:39;;;;;;;39.00;23.38;;;;;;;;;;5070760;28;20396;-83
2021/11/14 04:22:07;;;;;;;37.65;23.15;;;;;;;;;;5086395;28;20670;-83
2021/11/14 04:24:34;;;;;;;37.53;22.98;;;;;;;;;;5085947;28;20400;-83
2021/11/14 04:27:01;;;;;;;33.42;21.42;;;;;;;;;;5086022;28;20419;-83
2021/11/14 04:29:28;;;;;;;33.83;20.95;;;;;;;;;;5085872;28;20399;-83
2021/11/14 04:31:55;;;;;;;33.83;20.55;;;;;;;;;;5084379;28;20435;-83
2021/11/14 04:34:21;;;;;;;29.70;19.08;;;;;;;;;;5083351;28;20403;-83
2021/11/14 04:36:49;;;;;;;30.00;18.75;;;;;;;;;;5085938;28;20766;-82
2021/11/14 04:39:17;;;;;;;26.95;16.73;;;;;;;;;;5086024;28;20411;-82
2021/11/14 04:41:44;;;;;;;26.27;16.33;;;;;;;;;;5084848;28;20929;-81
2021/11/14 04:44:10;;;;;;;23.83;15.25;;;;;;;;;;5086394;28;20400;-83
2021/11/14 04:46:37;;;;;;;22.45;14.00;;;;;;;;;;5085622;28;20424;-83
2021/11/14 04:49:04;;;;;;;21.37;14.07;;;;;;;;;;5084222;28;20822;-81
2021/11/14 04:51:31;;;;;;;19.63;12.02;;;;;;;;;;5085713;28;20449;-81
2021/11/14 04:53:58;;;;;;;17.20;11.35;;;;;;;;;;5085869;28;20392;-81
2021/11/14 04:56:28;;;;;;;16.55;11.05;;;;;;;;;;5085409;28;20880;-81
2021/11/14 04:58:55;;;;;;;15.63;10.93;;;;;;;;;;5087808;28;20429;-83
2021/11/14 05:01:22;;;;;;;15.07;10.43;;;;;;;;;;5090618;28;20756;-81
2021/11/14 05:03:48;;;;;;;15.32;11.07;;;;;;;;;;5072225;28;20416;-83
2021/11/14 05:06:15;;;;;;;15.73;10.80;;;;;;;;;;5070242;28;20414;-83
2021/11/14 05:08:42;;;;;;;18.03;10.97;;;;;;;;;;5078141;28;20859;-83
2021/11/14 05:11:09;;;;;;;17.17;11.57;;;;;;;;;;5080253;28;20422;-84
2021/11/14 05:13:37;;;;;;;16.38;10.77;;;;;;;;;;5076848;28;20403;-83
2021/11/14 05:16:04;;;;;;;17.10;11.17;;;;;;;;;;5079192;28;20450;-83
2021/11/14 05:18:31;;;;;;;16.85;11.15;;;;;;;;;;5076099;28;20503;-83
2021/11/14 05:20:58;;;;;;;16.33;11.03;;;;;;;;;;5078411;28;20396;-82
2021/11/14 05:23:25;;;;;;;17.90;11.40;;;;;;;;;;5079787;28;20471;-83
2021/11/14 05:25:52;;;;;;;16.80;11.10;;;;;;;;;;5075873;28;20403;-83
2021/11/14 05:28:19;;;;;;;17.42;11.88;;;;;;;;;;5079618;28;20392;-82
2021/11/14 05:30:47;;;;;;;15.77;11.13;;;;;;;;;;5076434;28;20397;-83
2021/11/14 05:33:15;;;;;;;16.75;11.35;;;;;;;;;;5076125;28;20400;-83
2021/11/14 05:35:42;;;;;;;17.00;11.73;;;;;;;;;;5075427;28;20413;-83
2021/11/14 05:38:10;;;;;;;17.58;11.73;;;;;;;;;;5079325;28;20398;-83
2021/11/14 05:40:37;;;;;;;17.83;11.00;;;;;;;;;;5078109;28;20397;-83
2021/11/14 05:43:04;;;;;;;15.20;10.68;;;;;;;;;;5077439;28;20704;-83
2021/11/14 05:45:31;;;;;;;15.32;10.35;;;;;;;;;;5078610;28;20891;-83
2021/11/14 05:47:59;;;;;;;17.63;11.70;;;;;;;;;;5075758;28;20427;-83
2021/11/14 05:50:26;;;;;;;15.93;11.45;;;;;;;;;;5078558;28;20396;-83
2021/11/14 05:52:53;;;;;;;15.77;10.75;;;;;;;;;;5076247;28;20455;-84
2021/11/14 05:55:20;;;;;;;16.13;10.80;;;;;;;;;;5082582;28;20843;-83
2021/11/14 05:57:53;;;;;;;16.75;11.20;;;;;;;;;;5079885;28;20525;-83
2021/11/14 06:00:26;;;;;;;15.88;10.50;;;;;;;;;;5080217;28;20409;-83
2021/11/14 06:02:57;;;;;;;14.75;10.15;;;;;;;;;;5079782;28;20410;-84
2021/11/14 06:05:26;;;;;;;13.82;10.05;;;;;;;;;;5083916;28;20397;-83
2021/11/14 06:07:53;;;;;;;14.35;9.77;;;;;;;;;;5083078;28;20427;-83
2021/11/14 06:10:19;;;;;;;13.52;9.38;;;;;;;;;;5080474;28;20768;-83
2021/11/14 06:12:47;;;;;;;14.82;9.48;;;;;;;;;;5081898;28;20396;-84
2021/11/14 06:15:20;;;;;;;14.80;10.02;;;;;;;;;;5081993;28;20405;-83
2021/11/14 06:17:47;;;;;;;14.70;9.90;;;;;;;;;;5081845;28;20400;-84
2021/11/14 06:20:14;;;;;;;13.93;9.67;;;;;;;;;;5077142;28;20398;-84
2021/11/14 06:22:43;;;;;;;13.82;9.25;;;;;;;;;;5082019;28;20404;-84
2021/11/14 06:25:10;;;;;;;13.85;9.35;;;;;;;;;;5083336;28;20637;-84
2021/11/14 06:27:37;;;;;;;12.05;8.15;;;;;;;;;;5081471;28;20888;-83
2021/11/14 06:30:07;;;;;;;11.27;7.53;;;;;;;;;;5087074;28;20396;-84
2021/11/14 06:32:34;;;;;;;9.95;6.90;;;;;;;;;;5083390;28;20404;-81
2021/11/14 06:35:01;;;;;;;9.25;5.70;;;;;;;;;;5085591;28;20412;-83
2021/11/14 06:37:28;;;;;;;7.13;5.28;;;;;;;;;;5084351;28;20406;-84
2021/11/14 06:39:58;;;;;;;6.57;4.63;;;;;;;;;;5084625;28;20408;-83
2021/11/14 06:42:25;;;;;;;6.60;4.60;;;;;;;;;;5083711;28;20467;-84
2021/11/14 06:44:51;;;;;;;6.15;4.28;;;;;;;;;;5084026;28;20394;-84
2021/11/14 06:47:18;;;;;;;5.57;4.25;;;;;;;;;;5085960;28;20424;-84
2021/11/14 06:49:47;;;;;;;5.55;3.92;;;;;;;;;;5086858;28;20404;-83
2021/11/14 06:52:14;;;;;;;5.10;3.60;;;;;;;;;;5085779;28;20412;-84
2021/11/14 06:54:41;;;;;;;5.03;3.67;;;;;;;;;;5084443;28;20396;-83
2021/11/14 06:57:09;;;;;;;5.20;3.45;;;;;;;;;;5084273;28;20411;-84
2021/11/14 06:59:38;;;;;;;5.50;3.58;;;;;;;;;;5083233;28;21031;-83
2021/11/14 07:02:05;;;;;;;4.75;3.65;;;;;;;;;;5082472;28;20396;-82
2021/11/14 07:04:32;;;;;;;5.53;3.93;;;;;;;;;;5083832;28;20539;-84
2021/11/14 07:06:59;;;;;;;4.53;3.80;;;;;;;;;;5080550;28;20433;-84
2021/11/14 07:09:26;;;;;;;5.68;4.22;;;;;;;;;;5085684;28;20879;-84
2021/11/14 07:11:53;;;;;;;6.45;4.25;;;;;;;;;;5078421;28;20413;-84
2021/11/14 07:14:22;;;;;;;5.72;4.18;;;;;;;;;;5082276;28;20396;-84
2021/11/14 07:16:50;;;;;;;6.67;4.43;;;;;;;;;;5079273;28;20734;-84
2021/11/14 07:19:16;;;;;;;6.15;4.20;;;;;;;;;;5079314;28;20411;-83
2021/11/14 07:21:44;;;;;;;5.97;4.40;;;;;;;;;;5083955;28;20415;-82
2021/11/14 07:24:11;;;;;;;8.13;5.25;;;;;;;;;;5078655;28;20404;-82
2021/11/14 07:26:38;;;;;;;6.18;4.15;;;;;;;;;;5085501;28;20915;-81
2021/11/14 07:29:05;;;;;;;6.25;4.53;;;;;;;;;;5086494;28;20399;-82
2021/11/14 07:31:34;;;;;;;5.97;4.60;;;;;;;;;;5077933;28;20944;-81
2021/11/14 07:34:01;;;;;;;7.25;4.75;;;;;;;;;;5081561;28;20400;-82
2021/11/14 07:36:28;;;;;;;7.70;4.63;;;;;;;;;;5084743;28;20749;-82
2021/11/14 07:38:55;;;;;;;6.45;4.70;;;;;;;;;;5081818;28;20400;-82
2021/11/14 07:41:23;;;;;;;7.53;5.43;;;;;;;;;;5068278;28;20427;-82
2021/11/14 07:43:50;;;;;;;5.85;4.85;;;;;;;;;;5064436;28;20415;-82
2021/11/14 07:46:17;;;;;;;7.00;4.85;;;;;;;;;;5079239;28;20398;-83
2021/11/14 07:48:46;;;;;;;7.82;5.00;;;;;;;;;;5084204;28;20871;-82
2021/11/14 07:51:13;;;;;;;7.78;5.03;;;;;;;;;;5082873;28;20473;-82
2021/11/14 07:53:40;;;;;;;7.95;5.07;;;;;;;;;;5085921;28;20402;-82
2021/11/14 07:56:07;;;;;;;6.60;4.80;;;;;;;;;;5086319;28;20467;-82
2021/11/14 07:58:34;;;;;;;6.80;5.03;;;;;;;;;;5086666;28;20396;-82
2021/11/14 08:01:01;;;;;;;6.90;4.50;;;;;;;;;;5085673;28;20494;-82
2021/11/14 08:03:31;;;;;;;6.07;3.50;;;;;;;;;;5080843;28;20407;-83
2021/11/14 08:06:00;;;;;;;5.85;3.92;;;;;;;;;;5086229;28;20453;-82
2021/11/14 08:08:27;;;;;;;4.20;3.20;;;;;;;;;;5086455;28;20421;-77
2021/11/14 08:10:54;;;;;;;5.25;3.70;;;;;;;;;;5084990;28;20397;-81
2021/11/14 08:13:21;;;;;;;3.95;3.40;;;;;;;;;;5082403;28;20457;-82
2021/11/14 08:15:49;;;;;;;5.70;3.70;;;;;;;;;;5076312;28;20943;-82
2021/11/14 08:18:17;;;;;;;4.95;3.22;;;;;;;;;;5074772;28;20919;-82
2021/11/14 08:20:44;;;;;;;3.88;3.08;;;;;;;;;;5080375;28;20408;-82
2021/11/14 08:23:14;;;;;;;4.00;3.10;;;;;;;;;;5078470;28;20393;-82
2021/11/14 08:25:41;;;;;;;3.50;2.50;;;;;;;;;;5080306;28;20532;-81
2021/11/14 08:28:08;;;;;;;14.80;3.40;;;;;;;;;;5082295;28;20420;-82
2021/11/14 08:30:36;;;;;;;4.60;3.30;;;;;;;;;;5082369;28;20400;-82
2021/11/14 08:33:03;;;;;;;4.63;3.80;;;;;;;;;;5081185;28;20404;-83
2021/11/14 08:35:30;;;;;;;3.40;2.97;;;;;;;;;;5080149;28;20407;-83
2021/11/14 08:38:00;;;;;;;5.00;3.20;;;;;;;;;;5079967;28;20456;-83
2021/11/14 08:40:31;;;;;;;3.75;2.80;;;;;;;;;;5083491;28;20400;-83
2021/11/14 08:42:59;;;;;;;4.70;3.80;;;;;;;;;;5076850;28;20427;-83
2021/11/14 08:45:27;;;;;;;4.40;3.30;;;;;;;;;;5083365;28;20478;-82
2021/11/14 08:47:54;;;;;;;3.83;3.22;;;;;;;;;;5080619;28;20427;-82
2021/11/14 08:50:22;;;;;;;4.73;3.30;;;;;;;;;;5077991;28;20778;-84
2021/11/14 08:52:48;;;;;;;4.60;3.13;;;;;;;;;;5081646;28;20406;-83
2021/11/14 08:55:19;;;;;;;4.68;3.10;;;;;;;;;;5079280;28;20404;-83
2021/11/14 08:57:49;;;;;;;4.72;3.17;;;;;;;;;;5075718;28;20416;-83
2021/11/14 09:00:18;;;;;;;3.70;3.20;;;;;;;;;;5079916;28;20396;-83
2021/11/14 09:02:46;;;;;;;4.23;3.37;;;;;;;;;;5075103;28;20400;-83
2021/11/14 09:05:13;;;;;;;4.82;3.50;;;;;;;;;;5076883;28;20409;-83
2021/11/14 09:07:39;;;;;;;5.40;3.75;;;;;;;;;;5076320;28;20416;-82
2021/11/14 09:10:09;;;;;;;5.22;3.78;;;;;;;;;;5072549;28;20787;-82
2021/11/14 09:12:36;;;;;;;4.70;3.78;;;;;;;;;;5073553;28;20476;-82
2021/11/14 09:15:05;;;;;;;4.63;3.87;;;;;;;;;;5077537;28;20411;-83
2021/11/14 09:17:32;;;;;;;5.72;3.80;;;;;;;;;;5080152;28;20404;-82
2021/11/14 09:19:59;;;;;;;5.00;3.75;;;;;;;;;;5079682;28;20412;-82
2021/11/14 09:22:26;;;;;;;4.32;3.80;;;;;;;;;;5080654;28;20384;-82
2021/11/14 09:24:53;;;;;;;5.10;4.35;;;;;;;;;;5083044;28;20769;-82
2021/11/14 09:27:20;;;;;;;5.95;4.57;;;;;;;;;;5083474;28;20404;-82
2021/11/14 09:43:22;;;;;;;5.37;4.10;;;;;;;;;;5138019;27;20376;-83
2021/11/14 09:45:51;;;;;;;5.50;4.35;;;;;;;;;;5136217;27;20398;-81
2021/11/14 09:48:19;;;;;;;7.93;5.88;;;;;;;;;;5130634;27;20411;-83
2021/11/14 09:50:45;;;;;;;6.93;5.47;;;;;;;;;;5136140;27;20442;-81
2021/11/14 09:53:13;;;;;;;7.07;5.50;;;;;;;;;;5132315;27;20799;-82
2021/11/14 09:55:40;;;;;;;8.80;6.10;;;;;;;;;;5138246;27;20759;-82
2021/11/14 09:58:08;;;;;;;7.25;5.38;;;;;;;;;;5137301;27;20410;-82
2021/11/14 10:00:39;;;;;;;7.97;6.50;;;;;;;;;;5138366;27;20401;-82
2021/11/14 10:03:06;;;;;;;7.65;6.22;;;;;;;;;;5131468;27;20421;-83
2021/11/14 10:05:34;;;;;;;8.30;6.30;;;;;;;;;;5135095;27;20400;-83
2021/11/14 10:08:03;;;;;;;8.07;6.38;;;;;;;;;;5134770;27;20412;-83
2021/11/14 10:10:33;;;;;;;7.90;6.25;;;;;;;;;;5137333;27;20409;-82
2021/11/14 10:13:12;;;;;;;7.68;6.18;;;;;;;;;;5136147;27;20400;-82
2021/11/14 10:15:41;;;;;;;8.10;6.30;;;;;;;;;;5135140;27;20404;-82
2021/11/14 10:18:08;;;;;;;8.75;6.13;;;;;;;;;;5131571;27;20417;-82
2021/11/14 10:20:36;;;;;;;8.27;6.43;;;;;;;;;;5135314;27;20395;-81
2021/11/14 10:23:07;;;;;;;7.88;6.10;;;;;;;;;;5137512;27;20492;-82
2021/11/14 10:25:35;;;;;;;8.10;5.93;;;;;;;;;;5135451;27;20396;-82
2021/11/14 10:28:04;;;;;;;8.55;6.55;;;;;;;;;;5136537;27;20407;-82
2021/11/14 10:30:34;;;;;;;6.93;5.00;;;;;;;;;;5132563;27;21027;-82
2021/11/14 10:33:05;;;;;;;7.28;6.28;;;;;;;;;;5129150;27;20503;-82
2021/11/14 10:35:33;;;;;;;9.27;6.03;;;;;;;;;;5135161;27;20411;-81
2021/11/14 10:38:02;;;;;;;7.55;5.82;;;;;;;;;;5127803;27;20398;-82
2021/11/14 10:40:31;;;;;;;7.20;5.93;;;;;;;;;;5125045;27;20404;-81
2021/11/14 10:43:01;;;;;;;8.73;6.80;;;;;;;;;;5116873;27;20515;-82
2021/11/14 10:45:29;;;;;;;9.10;6.68;;;;;;;;;;5110371;27;20409;-82
2021/11/14 10:47:57;;;;;;;7.85;5.93;;;;;;;;;;5111578;27;20417;-82
2021/11/14 10:50:28;;;;;;;6.57;5.85;;;;;;;;;;5115157;27;20416;-83
2021/11/14 10:52:57;;;;;;;7.82;5.68;;;;;;;;;;5111714;27;20409;-82
2021/11/14 10:55:25;;;;;;;6.57;5.23;;;;;;;;;;5108354;27;20430;-81
2021/11/14 10:57:52;;;;;;;7.25;6.28;;;;;;;;;;5113747;27;20417;-82
2021/11/14 11:00:21;;;;;;;6.53;5.57;;;;;;;;;;5110889;27;20397;-82
2021/11/14 11:02:49;;;;;;;6.53;5.57;;;;;;;;;;5112486;27;20422;-82
2021/11/14 11:05:18;;;;;;;7.93;5.57;;;;;;;;;;5111998;27;20422;-77
2021/11/14 11:07:57;;;;;;;7.05;5.68;;;;;;;;;;5120071;27;20400;-82
2021/11/14 11:10:32;;;;;;;6.88;5.60;;;;;;;;;;5119930;27;20400;-82
2021/11/14 11:12:59;;;;;;;5.90;5.10;;;;;;;;;;5119205;27;20425;-84
2021/11/14 11:15:25;;;;;;;8.80;6.33;;;;;;;;;;5121503;27;20407;-83
2021/11/14 11:17:54;;;;;;;7.18;5.50;;;;;;;;;;5117808;27;20407;-83
2021/11/14 11:20:24;;;;;;;9.45;6.50;;;;;;;;;;5122696;27;20394;-83
2021/11/14 11:22:55;;;;;;;6.03;5.43;;;;;;;;;;5117282;27;21013;-83
2021/11/14 11:25:46;;;;;;;6.50;5.50;;;;;;;;;;5122821;27;20393;-83
2021/11/14 11:28:18;;;;;;;7.22;5.20;;;;;;;;;;5115166;27;20409;-83
2021/11/14 11:30:48;;;;;;;6.45;5.07;;;;;;;;;;5114106;27;20406;-83
2021/11/14 11:33:17;;;;;;;6.22;4.72;;;;;;;;;;5109077;27;20441;-83
2021/11/14 11:35:44;;;;;;;5.97;4.57;;;;;;;;;;5108645;27;20403;-83
2021/11/14 11:38:14;;;;;;;6.50;4.75;;;;;;;;;;5110666;27;20757;-83
2021/11/14 11:40:41;;;;;;;5.68;4.70;;;;;;;;;;5112412;27;20409;-83
2021/11/14 11:43:09;;;;;;;6.75;5.03;;;;;;;;;;5112906;27;20422;-83
2021/11/14 11:45:39;;;;;;;5.73;4.60;;;;;;;;;;5113510;27;20495;-83
2021/11/14 11:48:16;;;;;;;6.43;5.05;;;;;;;;;;5115020;27;20422;-83
2021/11/14 11:50:43;;;;;;;6.10;4.88;;;;;;;;;;5110121;27;20397;-83
2021/11/14 11:53:22;;;;;;;7.68;5.30;;;;;;;;;;5110405;27;20463;-83
2021/11/14 11:56:03;;;;;;;5.53;4.90;;;;;;;;;;5112047;27;20495;-83
2021/11/14 11:58:39;;;;;;;5.97;4.87;;;;;;;;;;5107683;27;20442;-83
2021/11/14 12:01:06;;;;;;;7.32;4.72;;;;;;;;;;5109534;27;20481;-82
2021/11/14 12:03:36;;;;;;;5.50;4.50;;;;;;;;;;5111014;27;20430;-81
2021/11/14 12:06:15;;;;;;;7.47;4.75;;;;;;;;;;5112166;27;21011;-81
2021/11/14 12:08:46;;;;;;;6.15;4.68;;;;;;;;;;5109270;27;20398;-83
2021/11/14 12:11:27;;;;;;;6.05;4.60;;;;;;;;;;5108723;27;20402;-82
2021/11/14 12:13:54;;;;;;;6.70;5.00;;;;;;;;;;5110021;27;20452;-81
2021/11/14 12:16:31;;;;;;;6.00;4.90;;;;;;;;;;5110832;27;20406;-82
2021/11/14 12:18:59;;;;;;;7.43;4.93;;;;;;;;;;5108819;27;20881;-82
2021/11/14 12:21:30;;;;;;;6.60;5.18;;;;;;;;;;5111304;27;20393;-84
2021/11/14 12:24:00;;;;;;;6.75;5.32;;;;;;;;;;5114312;27;20398;-82
2021/11/14 12:26:30;;;;;;;8.50;6.00;;;;;;;;;;5104569;28;20407;-83
2021/11/14 12:29:00;;;;;;;7.87;5.80;;;;;;;;;;5105956;28;20399;-83
2021/11/14 12:31:29;;;;;;;7.95;5.85;;;;;;;;;;5108382;27;20405;-83
2021/11/14 12:34:00;;;;;;;6.78;5.70;;;;;;;;;;5103722;28;20485;-84
2021/11/14 12:36:37;;;;;;;6.38;4.88;;;;;;;;;;5121579;27;20410;-84
2021/11/14 12:39:16;;;;;;;6.38;4.90;;;;;;;;;;5119968;27;20417;-85
2021/11/14 12:41:52;;;;;;;5.10;4.47;;;;;;;;;;5110057;27;20414;-82
2021/11/14 12:44:30;;;;;;;4.90;4.40;;;;;;;;;;5109501;27;20391;-83
2021/11/14 12:46:57;;;;;;;4.53;3.90;;;;;;;;;;5107056;27;20407;-83
2021/11/14 12:49:35;;;;;;;4.17;3.70;;;;;;;;;;5107325;27;20496;-83
2021/11/14 12:52:03;;;;;;;4.72;3.65;;;;;;;;;;5111069;27;20438;-84
2021/11/14 12:54:31;;;;;;;5.03;3.72;;;;;;;;;;5109096;27;20386;-83
2021/11/14 12:57:09;;;;;;;5.38;3.70;;;;;;;;;;5113501;27;20761;-84
2021/11/14 12:59:43;;;;;;;4.83;4.30;;;;;;;;;;5109974;27;20427;-83
2021/11/14 13:02:18;;;;;;;5.80;4.32;;;;;;;;;;5110239;27;20397;-84
2021/11/14 13:04:45;;;;;;;4.93;4.07;;;;;;;;;;5113658;27;20774;-83
2021/11/14 13:07:21;;;;;;;5.93;4.40;;;;;;;;;;5107455;27;20463;-83
2021/11/14 13:09:50;;;;;;;5.20;4.25;;;;;;;;;;5109053;27;20445;-83
2021/11/14 13:12:19;;;;;;;6.00;4.65;;;;;;;;;;5112807;27;20409;-83
2021/11/14 13:14:47;;;;;;;5.57;4.65;;;;;;;;;;5112193;27;20417;-83
2021/11/14 13:17:14;;;;;;;5.55;4.47;;;;;;;;;;5103429;27;20441;-81
2021/11/14 13:19:42;;;;;;;5.00;4.32;;;;;;;;;;5111494;27;20408;-82
2021/11/14 13:22:10;;;;;;;5.97;4.73;;;;;;;;;;5111053;27;20416;-82
2021/11/14 13:24:39;;;;;;;5.45;4.75;;;;;;;;;;5116955;27;20408;-82
2021/11/14 13:27:09;;;;;;;6.40;4.75;;;;;;;;;;5107822;27;20410;-81
2021/11/14 13:29:38;;;;;;;5.40;4.73;;;;;;;;;;5115216;28;20393;-83
2021/11/14 13:32:08;;;;;;;7.00;5.18;;;;;;;;;;5113333;28;20459;-82
2021/11/14 13:34:36;;;;;;;5.68;5.00;;;;;;;;;;5109396;28;20923;-82
2021/11/14 13:37:05;;;;;;;7.03;5.03;;;;;;;;;;5115649;28;20449;-82
2021/11/14 13:39:36;;;;;;;5.75;5.13;;;;;;;;;;5113218;27;20401;-82
2021/11/14 13:42:07;;;;;;;6.35;5.50;;;;;;;;;;5112931;28;20428;-83
2021/11/14 13:44:37;;;;;;;6.33;5.40;;;;;;;;;;5111931;28;20401;-83
2021/11/14 13:47:07;;;;;;;7.38;5.68;;;;;;;;;;5112842;28;20404;-83
2021/11/14 13:49:34;;;;;;;7.72;5.60;;;;;;;;;;5111023;27;20419;-83
2021/11/14 13:52:02;;;;;;;14.53;5.70;;;;;;;;;;5108307;28;20405;-81
2021/11/14 13:54:29;;;;;;;6.25;4.97;;;;;;;;;;5112051;28;20413;-83
2021/11/14 13:56:56;;;;;;;7.67;5.37;;;;;;;;;;5115346;27;20394;-82
2021/11/14 13:59:24;;;;;;;6.13;5.10;;;;;;;;;;5114424;27;20410;-81
2021/11/14 14:02:02;;;;;;;7.03;4.90;;;;;;;;;;5107225;28;20398;-81
2021/11/14 14:04:29;;;;;;;7.05;5.22;;;;;;;;;;5104360;28;21170;-82
2021/11/14 14:07:00;;;;;;;9.40;5.95;;;;;;;;;;5106092;28;20862;-82
2021/11/14 14:09:27;;;;;;;6.93;4.57;;;;;;;;;;5107962;27;20739;-81
2021/11/14 14:11:54;;;;;;;6.10;4.50;;;;;;;;;;5107971;28;20399;-80
2021/11/14 14:14:21;;;;;;;7.15;4.95;;;;;;;;;;5111722;27;20401;-81
2021/11/14 14:16:49;;;;;;;5.33;4.47;;;;;;;;;;5108904;27;20397;-81
2021/11/14 14:19:16;;;;;;;6.38;4.80;;;;;;;;;;5108644;27;20397;-81
2021/11/14 14:21:43;;;;;;;5.72;4.82;;;;;;;;;;5108160;27;20403;-81
2021/11/14 14:24:10;;;;;;;7.00;4.90;;;;;;;;;;5112593;27;20442;-81
2021/11/14 14:26:37;;;;;;;7.47;5.28;;;;;;;;;;5110599;27;20432;-81
2021/11/14 14:29:09;;;;;;;5.25;4.75;;;;;;;;;;5103831;28;20400;-82
2021/11/14 14:31:36;;;;;;;6.13;4.53;;;;;;;;;;5106518;27;20406;-81
2021/11/14 14:34:09;;;;;;;5.35;4.30;;;;;;;;;;5108744;27;20402;-82
2021/11/14 14:36:37;;;;;;;4.85;4.32;;;;;;;;;;5110580;27;20447;-82
2021/11/14 14:39:10;;;;;;;6.13;4.45;;;;;;;;;;5106987;27;20403;-82
2021/11/14 14:41:38;;;;;;;7.38;5.05;;;;;;;;;;5112681;27;20397;-77
2021/11/14 14:44:08;;;;;;;7.47;5.85;;;;;;;;;;5110645;27;20419;-82
2021/11/14 14:46:37;;;;;;;4.70;4.28;;;;;;;;;;5106878;27;20406;-82
2021/11/14 14:49:10;;;;;;;4.82;4.28;;;;;;;;;;5111490;27;20403;-82
2021/11/14 14:51:42;;;;;;;5.57;4.40;;;;;;;;;;5107193;27;20418;-82